createdAt,value
2023-02-15T00:00:53.371Z,0.00
2023-02-15T00:01:53.426Z,0.00
2023-02-15T00:02:54.456Z,0.00
2023-02-15T00:03:53.336Z,0.00
2023-02-15T00:04:53.369Z,0.00
2023-02-15T00:05:53.305Z,0.00
2023-02-15T00:06:53.350Z,0.00
2023-02-15T00:07:53.317Z,0.00
2023-02-15T00:08:53.281Z,0.00
2023-02-15T00:09:53.273Z,0.00
2023-02-15T00:10:53.279Z,0.00
2023-02-15T00:11:53.247Z,0.00
2023-02-15T00:12:53.254Z,0.00
2023-02-15T00:13:53.222Z,0.00
2023-02-15T00:14:53.221Z,0.00
2023-02-15T00:15:53.228Z,0.00
2023-02-15T00:16:53.213Z,0.00
2023-02-15T00:17:53.231Z,0.00
2023-02-15T00:18:53.484Z,0.00
2023-02-15T00:19:53.601Z,0.00
2023-02-15T00:20:53.221Z,0.00
2023-02-15T00:21:53.193Z,0.00
2023-02-15T00:22:53.290Z,0.00
2023-02-15T00:23:53.110Z,0.00
2023-02-15T00:24:53.249Z,0.00
2023-02-15T00:25:53.111Z,0.00
2023-02-15T00:26:53.101Z,0.00
2023-02-15T00:27:53.088Z,0.00
2023-02-15T00:28:53.070Z,0.00
2023-02-15T00:29:53.068Z,0.00
2023-02-15T00:30:53.307Z,0.00
2023-02-15T00:31:53.156Z,0.00
2023-02-15T00:32:53.017Z,0.00
2023-02-15T00:33:52.999Z,0.00
2023-02-15T00:34:52.992Z,0.00
2023-02-15T00:35:53.003Z,0.00
2023-02-15T00:36:52.982Z,0.00
2023-02-15T00:37:52.982Z,0.00
2023-02-15T00:38:52.960Z,0.00
2023-02-15T00:39:52.949Z,0.00
2023-02-15T00:40:52.944Z,0.00
2023-02-15T00:41:52.920Z,0.00
2023-02-15T00:42:52.939Z,0.00
2023-02-15T00:43:52.892Z,0.00
2023-02-15T00:44:53.337Z,0.00
2023-02-15T00:45:52.904Z,0.00
2023-02-15T00:46:52.882Z,0.00
2023-02-15T00:47:52.871Z,0.00
2023-02-15T00:48:52.847Z,0.00
2023-02-15T00:49:52.920Z,0.00
2023-02-15T00:50:52.899Z,0.00
2023-02-15T00:51:53.063Z,0.00
2023-02-15T00:52:53.238Z,0.00
2023-02-15T00:53:52.828Z,0.00
2023-02-15T00:54:52.917Z,0.00
2023-02-15T00:55:52.774Z,0.00
2023-02-15T00:56:52.822Z,0.00
2023-02-15T00:57:52.810Z,0.00
2023-02-15T00:58:52.738Z,0.00
2023-02-15T00:59:52.725Z,0.00
2023-02-15T01:00:52.729Z,0.00
2023-02-15T01:01:52.727Z,0.00
2023-02-15T01:02:52.696Z,0.00
2023-02-15T01:03:52.737Z,0.00
2023-02-15T01:04:52.683Z,0.00
2023-02-15T01:05:52.666Z,0.00
2023-02-15T01:06:52.686Z,0.00
2023-02-15T01:07:54.448Z,0.00
2023-02-15T01:08:52.641Z,0.00
2023-02-15T01:09:52.667Z,0.00
2023-02-15T01:10:52.631Z,0.00
2023-02-15T01:11:52.596Z,0.00
2023-02-15T01:12:52.715Z,0.00
2023-02-15T01:13:53.277Z,0.00
2023-02-15T01:14:52.601Z,0.00
2023-02-15T01:15:52.652Z,0.00
2023-02-15T01:16:52.583Z,0.00
2023-02-15T01:17:52.552Z,0.00
2023-02-15T01:18:52.553Z,0.00
2023-02-15T01:19:52.551Z,0.00
2023-02-15T01:20:52.499Z,0.00
2023-02-15T01:21:52.498Z,0.00
2023-02-15T01:22:52.497Z,0.00
2023-02-15T01:23:52.469Z,0.00
2023-02-15T01:24:52.526Z,0.00
2023-02-15T01:25:52.455Z,0.00
2023-02-15T01:26:52.437Z,0.00
2023-02-15T01:27:52.442Z,0.00
2023-02-15T01:28:52.411Z,0.00
2023-02-15T01:29:52.432Z,0.00
2023-02-15T01:30:52.531Z,0.00
2023-02-15T01:31:52.557Z,0.00
2023-02-15T01:32:52.508Z,0.00
2023-02-15T01:33:52.527Z,0.00
2023-02-15T01:34:52.616Z,0.00
2023-02-15T01:35:52.513Z,0.00
2023-02-15T01:36:52.863Z,0.00
2023-02-15T01:37:52.340Z,0.00
2023-02-15T01:38:53.086Z,0.00
2023-02-15T01:39:53.375Z,0.00
2023-02-15T01:40:53.260Z,0.00
2023-02-15T01:41:52.266Z,0.00
2023-02-15T01:42:52.305Z,0.00
2023-02-15T01:43:52.266Z,0.00
2023-02-15T01:44:52.280Z,0.00
2023-02-15T01:45:52.280Z,0.00
2023-02-15T01:46:52.234Z,0.00
2023-02-15T01:47:52.245Z,0.00
2023-02-15T01:48:52.286Z,0.00
2023-02-15T01:49:52.900Z,0.00
2023-02-15T01:50:52.192Z,0.00
2023-02-15T01:51:52.193Z,0.00
2023-02-15T01:52:52.165Z,0.00
2023-02-15T01:54:52.166Z,0.00
2023-02-15T01:55:52.147Z,0.00
2023-02-15T01:56:52.127Z,0.00
2023-02-15T01:57:52.106Z,0.00
2023-02-15T01:58:52.095Z,0.00
2023-02-15T01:59:52.098Z,0.00
2023-02-15T02:00:52.082Z,0.00
2023-02-15T02:01:52.189Z,0.00
2023-02-15T02:02:52.117Z,0.00
2023-02-15T02:03:52.034Z,0.00
2023-02-15T02:04:52.094Z,0.00
2023-02-15T02:05:52.058Z,0.00
2023-02-15T02:06:52.192Z,0.00
2023-02-15T02:07:51.987Z,0.00
2023-02-15T02:08:51.999Z,0.00
2023-02-15T02:09:52.497Z,0.00
2023-02-15T02:10:52.842Z,0.00
2023-02-15T02:11:52.034Z,0.00
2023-02-15T02:12:51.934Z,0.00
2023-02-15T02:13:51.918Z,0.00
2023-02-15T02:14:51.943Z,0.00
2023-02-15T02:15:51.960Z,0.00
2023-02-15T02:16:51.908Z,0.00
2023-02-15T02:17:51.876Z,0.00
2023-02-15T02:18:51.898Z,0.00
2023-02-15T02:19:51.901Z,0.00
2023-02-15T02:20:51.917Z,0.00
2023-02-15T02:21:51.862Z,0.00
2023-02-15T02:22:51.822Z,0.00
2023-02-15T02:23:51.829Z,0.00
2023-02-15T02:24:51.805Z,0.00
2023-02-15T02:25:51.848Z,0.00
2023-02-15T02:26:51.781Z,0.00
2023-02-15T02:27:51.816Z,0.00
2023-02-15T02:28:51.769Z,0.00
2023-02-15T02:29:51.831Z,0.00
2023-02-15T02:30:51.975Z,0.00
2023-02-15T02:31:51.804Z,0.00
2023-02-15T02:32:51.736Z,0.00
2023-02-15T02:33:51.779Z,0.00
2023-02-15T02:34:51.717Z,0.00
2023-02-15T02:35:51.846Z,0.00
2023-02-15T02:36:51.774Z,0.00
2023-02-15T02:37:51.767Z,0.00
2023-02-15T02:38:51.669Z,0.00
2023-02-15T02:39:51.652Z,0.00
2023-02-15T02:40:51.753Z,0.00
2023-02-15T02:41:51.676Z,0.00
2023-02-15T02:42:51.645Z,0.00
2023-02-15T02:43:51.642Z,0.00
2023-02-15T02:44:51.595Z,0.00
2023-02-15T02:45:51.579Z,0.00
2023-02-15T02:46:51.711Z,0.00
2023-02-15T02:47:51.571Z,0.00
2023-02-15T02:48:51.547Z,0.00
2023-02-15T02:49:51.686Z,0.00
2023-02-15T02:50:51.530Z,0.00
2023-02-15T02:51:51.521Z,0.00
2023-02-15T02:52:51.528Z,0.00
2023-02-15T02:53:51.518Z,0.00
2023-02-15T02:54:51.480Z,0.00
2023-02-15T02:55:51.477Z,0.00
2023-02-15T02:56:51.469Z,0.00
2023-02-15T02:57:51.516Z,0.00
2023-02-15T02:58:51.437Z,0.00
2023-02-15T02:59:51.434Z,0.00
2023-02-15T03:00:51.418Z,0.00
2023-02-15T03:01:51.549Z,0.00
2023-02-15T03:02:51.480Z,0.00
2023-02-15T03:03:51.556Z,0.00
2023-02-15T03:04:51.437Z,0.00
2023-02-15T03:05:51.653Z,0.00
2023-02-15T03:06:51.372Z,0.00
2023-02-15T03:07:51.349Z,0.00
2023-02-15T03:08:51.400Z,0.00
2023-02-15T03:09:51.660Z,0.00
2023-02-15T03:10:51.339Z,0.00
2023-02-15T03:11:51.320Z,0.00
2023-02-15T03:12:51.298Z,0.00
2023-02-15T03:13:51.289Z,0.00
2023-02-15T03:14:51.291Z,0.00
2023-02-15T03:15:51.379Z,0.00
2023-02-15T03:16:51.273Z,0.00
2023-02-15T03:17:51.275Z,0.00
2023-02-15T03:18:51.221Z,0.00
2023-02-15T03:19:51.324Z,0.00
2023-02-15T03:20:51.938Z,0.00
2023-02-15T03:21:51.940Z,0.00
2023-02-15T03:22:51.490Z,0.00
2023-02-15T03:23:51.174Z,0.00
2023-02-15T03:24:51.900Z,0.00
2023-02-15T03:25:51.205Z,0.00
2023-02-15T03:26:51.169Z,0.00
2023-02-15T03:27:51.173Z,0.00
2023-02-15T03:28:51.822Z,0.00
2023-02-15T03:29:51.212Z,0.00
2023-02-15T03:30:51.148Z,0.00
2023-02-15T03:31:51.268Z,0.00
2023-02-15T03:32:51.104Z,0.00
2023-02-15T03:33:51.104Z,0.00
2023-02-15T03:34:51.078Z,0.00
2023-02-15T03:35:51.047Z,0.00
2023-02-15T03:36:51.108Z,0.00
2023-02-15T03:37:51.027Z,0.00
2023-02-15T03:38:51.037Z,0.00
2023-02-15T03:39:51.058Z,0.00
2023-02-15T03:40:50.995Z,0.00
2023-02-15T03:41:51.023Z,0.00
2023-02-15T03:42:50.989Z,0.00
2023-02-15T03:43:50.973Z,0.00
2023-02-15T03:44:50.958Z,0.00
2023-02-15T03:45:50.949Z,0.00
2023-02-15T03:46:53.489Z,0.00
2023-02-15T03:47:50.912Z,0.00
2023-02-15T03:48:51.099Z,0.00
2023-02-15T03:49:50.975Z,0.00
2023-02-15T03:50:50.903Z,0.00
2023-02-15T03:51:51.463Z,0.00
2023-02-15T03:52:50.941Z,0.00
2023-02-15T03:53:50.879Z,0.00
2023-02-15T03:54:50.848Z,0.00
2023-02-15T03:55:50.862Z,0.00
2023-02-15T03:56:50.816Z,0.00
2023-02-15T03:57:50.802Z,0.00
2023-02-15T03:58:50.806Z,0.00
2023-02-15T03:59:50.794Z,0.00
2023-02-15T04:00:50.819Z,0.00
2023-02-15T04:01:50.786Z,0.00
2023-02-15T04:02:50.826Z,0.00
2023-02-15T04:03:50.759Z,0.00
2023-02-15T04:04:50.734Z,0.00
2023-02-15T04:05:50.779Z,0.00
2023-02-15T04:06:50.790Z,0.00
2023-02-15T04:07:50.716Z,0.00
2023-02-15T04:08:50.699Z,0.00
2023-02-15T04:09:50.694Z,0.00
2023-02-15T04:10:50.680Z,0.00
2023-02-15T04:11:50.668Z,0.00
2023-02-15T04:12:50.668Z,0.00
2023-02-15T04:13:50.650Z,0.00
2023-02-15T04:14:50.749Z,0.00
2023-02-15T04:15:50.682Z,0.00
2023-02-15T04:16:50.806Z,0.00
2023-02-15T04:17:51.086Z,0.00
2023-02-15T04:18:50.901Z,0.00
2023-02-15T04:19:50.609Z,0.00
2023-02-15T04:20:50.572Z,0.00
2023-02-15T04:21:50.618Z,0.00
2023-02-15T04:22:50.564Z,0.00
2023-02-15T04:23:50.526Z,0.00
2023-02-15T04:24:50.539Z,0.00
2023-02-15T04:25:50.510Z,0.00
2023-02-15T04:26:50.490Z,0.00
2023-02-15T04:27:50.489Z,0.00
2023-02-15T04:28:50.465Z,0.00
2023-02-15T04:29:50.856Z,0.00
2023-02-15T04:30:50.809Z,0.00
2023-02-15T04:31:50.614Z,0.00
2023-02-15T04:32:50.469Z,0.00
2023-02-15T04:33:50.542Z,0.00
2023-02-15T04:34:50.479Z,0.00
2023-02-15T04:35:50.405Z,0.00
2023-02-15T04:36:50.382Z,0.00
2023-02-15T04:37:50.411Z,0.00
2023-02-15T04:38:50.371Z,0.00
2023-02-15T04:39:50.422Z,0.00
2023-02-15T04:40:50.334Z,0.00
2023-02-15T04:41:50.329Z,0.00
2023-02-15T04:42:50.332Z,0.00
2023-02-15T04:43:50.323Z,0.00
2023-02-15T04:44:50.322Z,0.00
2023-02-15T04:45:50.417Z,0.00
2023-02-15T04:46:50.286Z,0.00
2023-02-15T04:47:50.299Z,0.00
2023-02-15T04:48:50.266Z,0.00
2023-02-15T04:49:50.277Z,0.00
2023-02-15T04:50:50.238Z,0.00
2023-02-15T04:51:50.232Z,0.00
2023-02-15T04:52:50.263Z,0.00
2023-02-15T04:53:50.215Z,0.00
2023-02-15T04:54:50.195Z,0.00
2023-02-15T04:55:50.203Z,0.00
2023-02-15T04:56:50.203Z,0.00
2023-02-15T04:57:50.216Z,0.00
2023-02-15T04:58:50.600Z,0.00
2023-02-15T04:59:50.401Z,0.00
2023-02-15T05:00:50.277Z,0.00
2023-02-15T05:01:50.309Z,0.00
2023-02-15T05:02:50.199Z,0.00
2023-02-15T05:03:50.306Z,0.00
2023-02-15T05:04:50.075Z,0.00
2023-02-15T05:05:50.085Z,0.00
2023-02-15T05:06:50.076Z,0.00
2023-02-15T05:07:50.087Z,0.00
2023-02-15T05:08:50.031Z,0.00
2023-02-15T05:09:50.057Z,0.00
2023-02-15T05:10:50.044Z,0.00
2023-02-15T05:11:50.121Z,0.00
2023-02-15T05:12:50.134Z,0.00
2023-02-15T05:13:50.053Z,0.00
2023-02-15T05:14:49.988Z,0.00
2023-02-15T05:15:49.969Z,0.00
2023-02-15T05:16:50.017Z,0.00
2023-02-15T05:17:49.962Z,0.00
2023-02-15T05:18:49.939Z,0.00
2023-02-15T05:19:49.949Z,0.00
2023-02-15T05:20:49.952Z,0.00
2023-02-15T05:21:49.919Z,0.00
2023-02-15T05:22:49.946Z,0.00
2023-02-15T05:23:49.884Z,0.00
2023-02-15T05:24:49.875Z,0.00
2023-02-15T05:25:49.873Z,0.00
2023-02-15T05:26:49.847Z,0.00
2023-02-15T05:27:49.863Z,0.00
2023-02-15T05:28:49.870Z,0.00
2023-02-15T05:29:49.863Z,0.00
2023-02-15T05:30:50.066Z,0.00
2023-02-15T05:31:50.015Z,0.00
2023-02-15T05:32:49.931Z,0.00
2023-02-15T05:33:49.832Z,0.00
2023-02-15T05:34:50.031Z,0.00
2023-02-15T05:35:49.827Z,0.00
2023-02-15T05:36:49.839Z,0.00
2023-02-15T05:37:50.126Z,0.00
2023-02-15T05:38:50.478Z,0.00
2023-02-15T05:39:49.770Z,0.00
2023-02-15T05:40:50.642Z,0.00
2023-02-15T05:41:50.077Z,0.00
2023-02-15T05:42:49.750Z,0.00
2023-02-15T05:43:49.680Z,0.00
2023-02-15T05:44:49.673Z,0.00
2023-02-15T05:45:49.704Z,0.00
2023-02-15T05:46:49.640Z,0.00
2023-02-15T05:47:49.617Z,0.00
2023-02-15T05:48:49.626Z,0.00
2023-02-15T05:49:49.635Z,0.00
2023-02-15T05:50:49.597Z,0.00
2023-02-15T05:51:49.591Z,0.00
2023-02-15T05:52:52.058Z,0.00
2023-02-15T05:53:49.580Z,0.00
2023-02-15T05:54:49.552Z,0.00
2023-02-15T05:55:49.576Z,4.00
2023-02-15T05:56:49.533Z,4.00
2023-02-15T05:57:49.529Z,0.00
2023-02-15T05:58:49.551Z,0.00
2023-02-15T05:59:49.490Z,0.00
2023-02-15T06:00:49.501Z,0.00
2023-02-15T06:01:49.488Z,4.00
2023-02-15T06:02:49.585Z,4.00
2023-02-15T06:03:49.507Z,0.00
2023-02-15T06:04:49.474Z,0.00
2023-02-15T06:05:49.521Z,4.00
2023-02-15T06:06:49.792Z,4.00
2023-02-15T06:07:49.825Z,4.00
2023-02-15T06:08:49.765Z,0.00
2023-02-15T06:09:50.479Z,4.00
2023-02-15T06:10:49.526Z,4.00
2023-02-15T06:11:50.499Z,4.00
2023-02-15T06:12:49.397Z,4.00
2023-02-15T06:13:49.347Z,4.00
2023-02-15T06:14:49.364Z,4.00
2023-02-15T06:15:49.370Z,8.00
2023-02-15T06:16:49.329Z,8.00
2023-02-15T06:17:49.308Z,8.00
2023-02-15T06:18:49.309Z,8.00
2023-02-15T06:19:49.310Z,8.00
2023-02-15T06:20:49.298Z,8.00
2023-02-15T06:21:49.255Z,8.00
2023-02-15T06:22:49.252Z,12.00
2023-02-15T06:23:49.254Z,12.00
2023-02-15T06:24:49.256Z,12.00
2023-02-15T06:25:49.240Z,16.00
2023-02-15T06:26:49.203Z,16.00
2023-02-15T06:27:49.206Z,20.00
2023-02-15T06:28:49.188Z,24.00
2023-02-15T06:29:49.198Z,24.00
2023-02-15T06:30:49.221Z,28.00
2023-02-15T06:31:49.268Z,32.00
2023-02-15T06:32:49.183Z,36.00
2023-02-15T06:33:49.124Z,40.00
2023-02-15T06:34:49.193Z,40.00
2023-02-15T06:35:49.110Z,48.00
2023-02-15T06:36:49.108Z,48.00
2023-02-15T06:37:49.108Z,56.00
2023-02-15T06:38:49.069Z,60.00
2023-02-15T06:39:49.071Z,64.00
2023-02-15T06:40:49.060Z,68.00
2023-02-15T06:41:49.043Z,76.00
2023-02-15T06:42:49.057Z,84.00
2023-02-15T06:43:49.052Z,88.00
2023-02-15T06:44:49.056Z,96.00
2023-02-15T06:45:49.340Z,100.00
2023-02-15T06:46:49.260Z,100.00
2023-02-15T06:47:48.991Z,112.00
2023-02-15T06:48:49.035Z,116.00
2023-02-15T06:49:49.075Z,120.00
2023-02-15T06:50:49.973Z,120.00
2023-02-15T06:51:48.969Z,120.00
2023-02-15T06:52:48.963Z,124.00
2023-02-15T06:53:48.978Z,124.00
2023-02-15T06:54:48.937Z,136.00
2023-02-15T06:55:48.927Z,140.00
2023-02-15T06:56:48.895Z,144.00
2023-02-15T06:57:50.830Z,152.00
2023-02-15T06:58:48.854Z,160.00
2023-02-15T06:59:48.854Z,168.00
2023-02-15T07:00:48.865Z,172.00
2023-02-15T07:01:48.928Z,180.00
2023-02-15T07:02:48.831Z,188.00
2023-02-15T07:03:48.831Z,196.00
2023-02-15T07:04:48.896Z,196.00
2023-02-15T07:05:48.812Z,200.00
2023-02-15T07:06:48.789Z,212.00
2023-02-15T07:07:48.775Z,228.00
2023-02-15T07:08:48.761Z,240.00
2023-02-15T07:09:48.790Z,252.00
2023-02-15T07:10:48.766Z,280.00
2023-02-15T07:11:48.721Z,304.00
2023-02-15T07:12:48.717Z,316.00
2023-02-15T07:13:48.711Z,320.00
2023-02-15T07:14:48.683Z,324.00
2023-02-15T07:15:48.771Z,340.00
2023-02-15T07:16:48.708Z,348.00
2023-02-15T07:17:48.656Z,360.00
2023-02-15T07:18:48.650Z,376.00
2023-02-15T07:19:48.639Z,392.00
2023-02-15T07:20:48.749Z,400.00
2023-02-15T07:21:48.636Z,404.00
2023-02-15T07:22:48.598Z,416.00
2023-02-15T07:23:48.680Z,428.00
2023-02-15T07:24:48.856Z,428.00
2023-02-15T07:25:48.610Z,444.00
2023-02-15T07:26:48.678Z,456.00
2023-02-15T07:27:48.572Z,460.00
2023-02-15T07:28:48.560Z,488.00
2023-02-15T07:29:48.550Z,508.00
2023-02-15T07:30:48.593Z,528.00
2023-02-15T07:31:48.495Z,540.00
2023-02-15T07:32:48.518Z,556.00
2023-02-15T07:33:48.521Z,564.00
2023-02-15T07:34:48.477Z,576.00
2023-02-15T07:35:48.456Z,592.00
2023-02-15T07:36:48.453Z,608.00
2023-02-15T07:37:48.481Z,612.00
2023-02-15T07:38:48.440Z,628.00
2023-02-15T07:39:48.413Z,636.00
2023-02-15T07:40:49.113Z,632.00
2023-02-15T07:41:48.678Z,632.00
2023-02-15T07:42:48.404Z,644.00
2023-02-15T07:43:48.376Z,652.00
2023-02-15T07:44:48.393Z,652.00
2023-02-15T07:45:48.415Z,656.00
2023-02-15T07:46:48.371Z,680.00
2023-02-15T07:47:48.354Z,708.00
2023-02-15T07:48:48.386Z,720.00
2023-02-15T07:49:48.309Z,700.00
2023-02-15T07:50:48.442Z,696.00
2023-02-15T07:51:48.443Z,700.00
2023-02-15T07:52:48.302Z,708.00
2023-02-15T07:53:48.295Z,720.00
2023-02-15T07:54:48.299Z,728.00
2023-02-15T07:55:48.341Z,744.00
2023-02-15T07:56:48.386Z,760.00
2023-02-15T07:57:48.223Z,792.00
2023-02-15T07:58:48.258Z,832.00
2023-02-15T07:59:48.243Z,892.00
2023-02-15T08:00:48.247Z,916.00
2023-02-15T08:01:48.195Z,948.00
2023-02-15T08:02:48.195Z,996.00
2023-02-15T08:03:48.226Z,940.00
2023-02-15T08:04:48.253Z,936.00
2023-02-15T08:05:48.169Z,944.00
2023-02-15T08:06:48.114Z,964.00
2023-02-15T08:07:48.148Z,964.00
2023-02-15T08:08:48.098Z,948.00
2023-02-15T08:09:48.085Z,956.00
2023-02-15T08:10:48.073Z,956.00
2023-02-15T08:11:48.071Z,980.00
2023-02-15T08:12:48.129Z,936.00
2023-02-15T08:13:48.046Z,948.00
2023-02-15T08:14:48.056Z,976.00
2023-02-15T08:15:48.081Z,1000.00
2023-02-15T08:16:48.084Z,976.00
2023-02-15T08:17:48.005Z,968.00
2023-02-15T08:18:48.076Z,976.00
2023-02-15T08:19:48.270Z,976.00
2023-02-15T08:20:47.989Z,996.00
2023-02-15T08:21:47.970Z,1004.00
2023-02-15T08:22:48.000Z,996.00
2023-02-15T08:23:47.957Z,964.00
2023-02-15T08:24:48.057Z,948.00
2023-02-15T08:25:47.928Z,968.00
2023-02-15T08:26:47.922Z,1008.00
2023-02-15T08:27:47.960Z,1028.00
2023-02-15T08:28:47.887Z,1028.00
2023-02-15T08:29:47.911Z,1052.00
2023-02-15T08:30:47.919Z,1024.00
2023-02-15T08:31:48.073Z,1044.00
2023-02-15T08:32:47.857Z,1064.00
2023-02-15T08:33:47.858Z,1092.00
2023-02-15T08:34:47.841Z,1136.00
2023-02-15T08:35:47.821Z,1172.00
2023-02-15T08:36:47.813Z,1208.00
2023-02-15T08:37:47.828Z,1264.00
2023-02-15T08:38:47.780Z,1316.00
2023-02-15T08:39:47.801Z,1376.00
2023-02-15T08:40:47.788Z,1412.00
2023-02-15T08:41:47.960Z,1440.00
2023-02-15T08:42:47.842Z,1428.00
2023-02-15T08:43:47.958Z,1460.00
2023-02-15T08:44:49.418Z,1496.00
2023-02-15T08:45:47.750Z,1528.00
2023-02-15T08:46:47.831Z,1564.00
2023-02-15T08:47:47.709Z,1528.00
2023-02-15T08:48:47.744Z,1496.00
2023-02-15T08:49:47.764Z,1456.00
2023-02-15T08:50:47.645Z,1484.00
2023-02-15T08:51:47.667Z,1504.00
2023-02-15T08:52:47.651Z,1532.00
2023-02-15T08:53:47.683Z,1528.00
2023-02-15T08:54:47.647Z,1492.00
2023-02-15T08:55:47.614Z,1460.00
2023-02-15T08:56:47.718Z,1472.00
2023-02-15T08:57:47.606Z,1512.00
2023-02-15T08:58:47.599Z,1544.00
2023-02-15T08:59:47.599Z,1592.00
2023-02-15T09:00:47.685Z,1584.00
2023-02-15T09:01:47.859Z,1540.00
2023-02-15T09:02:47.581Z,1476.00
2023-02-15T09:03:47.533Z,1452.00
2023-02-15T09:04:47.504Z,1500.00
2023-02-15T09:05:47.656Z,1552.00
2023-02-15T09:06:49.067Z,1520.00
2023-02-15T09:07:47.487Z,1556.00
2023-02-15T09:08:47.490Z,1584.00
2023-02-15T09:09:47.462Z,1548.00
2023-02-15T09:10:47.478Z,1520.00
2023-02-15T09:11:47.480Z,1520.00
2023-02-15T09:12:47.446Z,1548.00
2023-02-15T09:13:47.411Z,1556.00
2023-02-15T09:14:47.469Z,1572.00
2023-02-15T09:15:47.380Z,1600.00
2023-02-15T09:16:47.601Z,1644.00
2023-02-15T09:17:47.400Z,1760.00
2023-02-15T09:18:47.363Z,1820.00
2023-02-15T09:19:47.337Z,1836.00
2023-02-15T09:20:47.409Z,1848.00
2023-02-15T09:21:47.338Z,1832.00
2023-02-15T09:22:47.318Z,1800.00
2023-02-15T09:23:47.324Z,1880.00
2023-02-15T09:24:47.304Z,1972.00
2023-02-15T09:25:47.322Z,1984.00
2023-02-15T09:26:47.351Z,1992.00
2023-02-15T09:27:47.253Z,1948.00
2023-02-15T09:28:47.244Z,1892.00
2023-02-15T09:29:47.246Z,1860.00
2023-02-15T09:30:47.388Z,1816.00
2023-02-15T09:31:47.401Z,1812.00
2023-02-15T09:32:48.151Z,1812.00
2023-02-15T09:33:47.391Z,1792.00
2023-02-15T09:34:47.213Z,1820.00
2023-02-15T09:35:47.184Z,1840.00
2023-02-15T09:36:47.169Z,1832.00
2023-02-15T09:37:47.178Z,1824.00
2023-02-15T09:38:47.133Z,1780.00
2023-02-15T09:39:49.068Z,1788.00
2023-02-15T09:40:47.128Z,1796.00
2023-02-15T09:41:47.909Z,1832.00
2023-02-15T09:42:47.092Z,1864.00
2023-02-15T09:43:47.144Z,1896.00
2023-02-15T09:44:47.100Z,1928.00
2023-02-15T09:45:47.093Z,1960.00
2023-02-15T09:46:47.103Z,1992.00
2023-02-15T09:47:47.040Z,2028.00
2023-02-15T09:48:47.028Z,2052.00
2023-02-15T09:49:47.099Z,2032.00
2023-02-15T09:50:46.999Z,1992.00
2023-02-15T09:51:46.999Z,1964.00
2023-02-15T09:52:47.006Z,1988.00
2023-02-15T09:53:46.975Z,2040.00
2023-02-15T09:54:46.975Z,1976.00
2023-02-15T09:55:46.984Z,1952.00
2023-02-15T09:56:46.964Z,1924.00
2023-02-15T09:57:46.960Z,2072.00
2023-02-15T09:58:47.010Z,2180.00
2023-02-15T09:59:46.910Z,2220.00
2023-02-15T10:00:46.915Z,2136.00
2023-02-15T10:01:46.994Z,2104.00
2023-02-15T10:02:46.907Z,2144.00
2023-02-15T10:03:46.885Z,2208.00
2023-02-15T10:04:46.934Z,2212.00
2023-02-15T10:05:46.872Z,2204.00
2023-02-15T10:06:46.830Z,2204.00
2023-02-15T10:07:46.823Z,2232.00
2023-02-15T10:08:46.895Z,2268.00
2023-02-15T10:09:46.963Z,2244.00
2023-02-15T10:10:46.784Z,2116.00
2023-02-15T10:11:46.810Z,1992.00
2023-02-15T10:12:46.819Z,1924.00
2023-02-15T10:13:46.896Z,1924.00
2023-02-15T10:14:46.824Z,2004.00
2023-02-15T10:15:46.793Z,2132.00
2023-02-15T10:16:46.780Z,2240.00
2023-02-15T10:17:46.730Z,2308.00
2023-02-15T10:18:46.709Z,2364.00
2023-02-15T10:19:46.710Z,2356.00
2023-02-15T10:20:46.691Z,2396.00
2023-02-15T10:21:46.678Z,2408.00
2023-02-15T10:22:46.677Z,2376.00
2023-02-15T10:23:46.655Z,2292.00
2023-02-15T10:24:48.829Z,2288.00
2023-02-15T10:25:46.809Z,2388.00
2023-02-15T10:26:46.644Z,2476.00
2023-02-15T10:27:46.746Z,2424.00
2023-02-15T10:28:46.658Z,2280.00
2023-02-15T10:29:46.594Z,2340.00
2023-02-15T10:30:54.352Z,2352.00
2023-02-15T10:31:46.963Z,2376.00
2023-02-15T10:32:46.569Z,2544.00
2023-02-15T10:33:46.564Z,2652.00
2023-02-15T10:34:46.545Z,2740.00
2023-02-15T10:35:46.530Z,2808.00
2023-02-15T10:36:47.513Z,2812.00
2023-02-15T10:37:46.526Z,2824.00
2023-02-15T10:38:46.627Z,2960.00
2023-02-15T10:39:46.483Z,3000.00
2023-02-15T10:40:46.480Z,3044.00
2023-02-15T10:41:47.329Z,2988.00
2023-02-15T10:42:46.457Z,2828.00
2023-02-15T10:43:46.428Z,2792.00
2023-02-15T10:44:46.438Z,2784.00
2023-02-15T10:45:46.531Z,2760.00
2023-02-15T10:46:46.418Z,2760.00
2023-02-15T10:47:46.412Z,2816.00
2023-02-15T10:48:46.383Z,2924.00
2023-02-15T10:49:46.391Z,2888.00
2023-02-15T10:50:46.409Z,2752.00
2023-02-15T10:51:46.354Z,2748.00
2023-02-15T10:52:46.636Z,2772.00
2023-02-15T10:53:46.331Z,2824.00
2023-02-15T10:54:46.365Z,3024.00
2023-02-15T10:55:46.321Z,3132.00
2023-02-15T10:56:46.974Z,3336.00
2023-02-15T10:57:46.316Z,3500.00
2023-02-15T10:58:46.279Z,3648.00
2023-02-15T10:59:46.266Z,3808.00
2023-02-15T11:00:46.262Z,3944.00
2023-02-15T11:01:46.344Z,4056.00
2023-02-15T11:02:46.270Z,4172.00
2023-02-15T11:03:46.256Z,4100.00
2023-02-15T11:04:46.357Z,4184.00
2023-02-15T11:05:46.272Z,4232.00
2023-02-15T11:06:46.265Z,4060.00
2023-02-15T11:07:46.174Z,3972.00
2023-02-15T11:08:46.343Z,4116.00
2023-02-15T11:09:46.298Z,4300.00
2023-02-15T11:10:46.158Z,4400.00
2023-02-15T11:11:46.123Z,4292.00
2023-02-15T11:12:46.109Z,4160.00
2023-02-15T11:13:46.718Z,4208.00
2023-02-15T11:14:46.260Z,4276.00
2023-02-15T11:15:46.347Z,4292.00
2023-02-15T11:16:46.087Z,4272.00
2023-02-15T11:17:46.118Z,4176.00
2023-02-15T11:18:46.704Z,4092.00
2023-02-15T11:19:46.163Z,4052.00
2023-02-15T11:20:46.039Z,3984.00
2023-02-15T11:21:46.031Z,3788.00
2023-02-15T11:22:46.726Z,3544.00
2023-02-15T11:23:46.013Z,3328.00
2023-02-15T11:24:46.015Z,3252.00
2023-02-15T11:25:45.974Z,3288.00
2023-02-15T11:26:45.977Z,3416.00
2023-02-15T11:27:47.658Z,3680.00
2023-02-15T11:28:45.955Z,3820.00
2023-02-15T11:29:46.023Z,3832.00
2023-02-15T11:30:46.069Z,3704.00
2023-02-15T11:31:46.057Z,3664.00
2023-02-15T11:32:45.912Z,3860.00
2023-02-15T11:33:45.901Z,4100.00
2023-02-15T11:34:45.932Z,4184.00
2023-02-15T11:35:45.887Z,4232.00
2023-02-15T11:36:46.725Z,4284.00
2023-02-15T11:37:45.873Z,4168.00
2023-02-15T11:38:45.837Z,3980.00
2023-02-15T11:39:45.832Z,3876.00
2023-02-15T11:40:45.822Z,3796.00
2023-02-15T11:41:46.663Z,3668.00
2023-02-15T11:42:45.819Z,3648.00
2023-02-15T11:43:45.790Z,3624.00
2023-02-15T11:44:45.782Z,3572.00
2023-02-15T11:45:45.780Z,3568.00
2023-02-15T11:46:45.814Z,3568.00
2023-02-15T11:47:45.775Z,3684.00
2023-02-15T11:48:45.734Z,3864.00
2023-02-15T11:49:45.732Z,3844.00
2023-02-15T11:50:45.711Z,3740.00
2023-02-15T11:51:45.823Z,3824.00
2023-02-15T11:52:45.705Z,3924.00
2023-02-15T11:53:45.680Z,3960.00
2023-02-15T11:54:45.654Z,4240.00
2023-02-15T11:55:45.683Z,4388.00
2023-02-15T11:56:45.664Z,4388.00
2023-02-15T11:57:45.714Z,4384.00
2023-02-15T11:58:45.664Z,4344.00
2023-02-15T11:59:45.630Z,4096.00
2023-02-15T12:00:45.603Z,3960.00
2023-02-15T12:01:46.240Z,3996.00
2023-02-15T12:02:45.664Z,4032.00
2023-02-15T12:03:45.714Z,4028.00
2023-02-15T12:04:45.793Z,4084.00
2023-02-15T12:05:46.929Z,4108.00
2023-02-15T12:06:45.527Z,4124.00
2023-02-15T12:07:45.586Z,4164.00
2023-02-15T12:08:45.528Z,4128.00
2023-02-15T12:09:45.522Z,4040.00
2023-02-15T12:10:45.491Z,4084.00
2023-02-15T12:11:45.642Z,4016.00
2023-02-15T12:12:45.495Z,3988.00
2023-02-15T12:13:45.524Z,4068.00
2023-02-15T12:14:45.465Z,4000.00
2023-02-15T12:15:45.456Z,3932.00
2023-02-15T12:16:45.460Z,3944.00
2023-02-15T12:17:45.410Z,4056.00
2023-02-15T12:18:45.537Z,4100.00
2023-02-15T12:19:45.432Z,4036.00
2023-02-15T12:20:45.397Z,4036.00
2023-02-15T12:21:46.258Z,4036.00
2023-02-15T12:22:45.400Z,3924.00
2023-02-15T12:23:46.245Z,3960.00
2023-02-15T12:24:46.414Z,4088.00
2023-02-15T12:25:45.351Z,4200.00
2023-02-15T12:26:45.347Z,4268.00
2023-02-15T12:27:45.332Z,4244.00
2023-02-15T12:28:45.325Z,4208.00
2023-02-15T12:29:45.316Z,4344.00
2023-02-15T12:30:45.273Z,4404.00
2023-02-15T12:31:45.380Z,4308.00
2023-02-15T12:32:45.520Z,4192.00
2023-02-15T12:33:45.244Z,4220.00
2023-02-15T12:34:45.225Z,4204.00
2023-02-15T12:35:45.312Z,4152.00
2023-02-15T12:36:45.239Z,4076.00
2023-02-15T12:37:45.192Z,4192.00
2023-02-15T12:38:45.476Z,4080.00
2023-02-15T12:39:46.072Z,3848.00
2023-02-15T12:40:45.226Z,3884.00
2023-02-15T12:41:45.284Z,3876.00
2023-02-15T12:42:45.173Z,3708.00
2023-02-15T12:43:45.121Z,3632.00
2023-02-15T12:44:45.129Z,3600.00
2023-02-15T12:45:45.443Z,3532.00